DLH5AV EDDF-EPKK
Flight info
| Callsign | DLH5AV |
|---|---|
| Flight time | 1h 25m |
| Altitude | 35000 |
| Route | TOBAK8M/25C TOBAK N858 SWALM T201 TAMEB DCT NEVKO DCT OMELO DCT OMIFU DCT ETUDA DCT SOPAV DCT PADKA |
| Aircraft | A319/M-SDE3FGHIRWY/LB1 |
Departure
| Time | 2026-05-07 16:35 |
|---|---|
| Airport | Frankfurt Main Airport (EDDF) |
Arrival
| Time | 2026-05-07 18:01 |
|---|---|
| Airport | Kraków John Paul II International Airport (EPKK) |
| Time | Latitude | Longitude | Altitude | Speed | Heading |
|---|---|---|---|---|---|
| 2026-05-07 16:06 | 50.04402 | 8.56222 | 356 ft | 0 kts | 159° |
| 2026-05-07 16:19 | 50.04409 | 8.56218 | 363 ft | 4 kts | 160° |
| 2026-05-07 16:19 | 50.04435 | 8.56205 | 361 ft | 4 kts | 168° |
| 2026-05-07 16:20 | 50.04461 | 8.56202 | 359 ft | 4 kts | 195° |
| 2026-05-07 16:20 | 50.04477 | 8.56217 | 365 ft | 2 kts | 250° |
| 2026-05-07 16:20 | 50.04471 | 8.56193 | 357 ft | 4 kts | 250° |
| 2026-05-07 16:20 | 50.04462 | 8.56153 | 356 ft | 4 kts | 250° |
| 2026-05-07 16:21 | 50.04453 | 8.56117 | 359 ft | 1 kts | 249° |
| 2026-05-07 16:21 | 50.04453 | 8.56116 | 358 ft | 0 kts | 249° |
| 2026-05-07 16:26 | 50.04450 | 8.56105 | 361 ft | 2 kts | 250° |
| 2026-05-07 16:26 | 50.04445 | 8.56084 | 356 ft | 6 kts | 250° |
| 2026-05-07 16:27 | 50.04396 | 8.56029 | 356 ft | 8 kts | 175° |
| 2026-05-07 16:27 | 50.04325 | 8.56066 | 355 ft | 13 kts | 159° |
| 2026-05-07 16:27 | 50.04286 | 8.56189 | 355 ft | 14 kts | 110° |
| 2026-05-07 16:27 | 50.04205 | 8.56260 | 356 ft | 14 kts | 160° |
| 2026-05-07 16:28 | 50.04146 | 8.56366 | 355 ft | 15 kts | 75° |
| 2026-05-07 16:28 | 50.04184 | 8.56518 | 361 ft | 16 kts | 70° |
| 2026-05-07 16:28 | 50.04222 | 8.56674 | 364 ft | 15 kts | 69° |
| 2026-05-07 16:28 | 50.04247 | 8.56784 | 361 ft | 8 kts | 69° |
| 2026-05-07 16:29 | 50.04280 | 8.56918 | 359 ft | 18 kts | 70° |
| 2026-05-07 16:29 | 50.04329 | 8.57126 | 365 ft | 22 kts | 70° |
| 2026-05-07 16:29 | 50.04385 | 8.57358 | 367 ft | 23 kts | 70° |
| 2026-05-07 16:29 | 50.04426 | 8.57532 | 362 ft | 13 kts | 73° |
| 2026-05-07 16:30 | 50.04405 | 8.57641 | 367 ft | 10 kts | 138° |
| 2026-05-07 16:30 | 50.04370 | 8.57667 | 366 ft | 9 kts | 159° |
| 2026-05-07 16:30 | 50.04274 | 8.57688 | 362 ft | 10 kts | 231° |
| 2026-05-07 16:30 | 50.04265 | 8.57659 | 362 ft | 0 kts | 248° |
| 2026-05-07 16:31 | 50.04265 | 8.57657 | 362 ft | 0 kts | 248° |
| 2026-05-07 16:34 | 50.04264 | 8.57655 | 362 ft | 0 kts | 248° |
| 2026-05-07 16:34 | 50.04264 | 8.57654 | 362 ft | 0 kts | 249° |
| 2026-05-07 16:35 | 50.04244 | 8.57568 | 365 ft | 35 kts | 250° |
| 2026-05-07 16:35 | 50.04059 | 8.56801 | 361 ft | 113 kts | 250° |
| 2026-05-07 16:35 | 50.03714 | 8.55361 | 501 ft | 156 kts | 248° |
| 2026-05-07 16:35 | 50.03343 | 8.53808 | 1267 ft | 153 kts | 250° |
| 2026-05-07 16:36 | 50.02967 | 8.52230 | 1903 ft | 163 kts | 251° |
| 2026-05-07 16:36 | 50.02494 | 8.50499 | 2346 ft | 187 kts | 238° |
| 2026-05-07 16:36 | 50.01364 | 8.49307 | 2751 ft | 211 kts | 199° |
| 2026-05-07 16:36 | 49.99937 | 8.48676 | 3527 ft | 213 kts | 196° |
| 2026-05-07 16:37 | 49.98503 | 8.48073 | 4333 ft | 214 kts | 197° |
| 2026-05-07 16:37 | 49.97042 | 8.47451 | 5135 ft | 215 kts | 198° |
| 2026-05-07 16:37 | 49.95610 | 8.46827 | 5869 ft | 221 kts | 198° |
| 2026-05-07 16:37 | 49.94034 | 8.46117 | 6376 ft | 244 kts | 198° |
| 2026-05-07 16:38 | 49.92379 | 8.45348 | 7213 ft | 252 kts | 201° |
| 2026-05-07 16:38 | 49.90931 | 8.43916 | 8094 ft | 254 kts | 231° |
| 2026-05-07 16:38 | 49.90170 | 8.41437 | 9053 ft | 255 kts | 263° |
| 2026-05-07 16:38 | 49.90363 | 8.38736 | 10009 ft | 257 kts | 294° |
| 2026-05-07 16:39 | 49.91460 | 8.36566 | 10858 ft | 261 kts | 324° |
| 2026-05-07 16:39 | 49.93137 | 8.35264 | 11410 ft | 281 kts | 336° |
| 2026-05-07 16:39 | 49.94987 | 8.34051 | 11771 ft | 305 kts | 336° |
| 2026-05-07 16:39 | 49.97004 | 8.32750 | 12324 ft | 320 kts | 336° |
| 2026-05-07 16:40 | 49.99084 | 8.31414 | 13135 ft | 326 kts | 336° |
| 2026-05-07 16:40 | 50.01196 | 8.30048 | 13975 ft | 331 kts | 336° |
| 2026-05-07 16:40 | 50.03407 | 8.28971 | 14721 ft | 337 kts | 348° |
| 2026-05-07 16:40 | 50.05766 | 8.28741 | 15462 ft | 344 kts | 2° |
| 2026-05-07 16:41 | 50.08129 | 8.29448 | 16185 ft | 351 kts | 16° |
| 2026-05-07 16:41 | 50.10455 | 8.30668 | 16941 ft | 355 kts | 17° |
| 2026-05-07 16:41 | 50.12805 | 8.31908 | 17681 ft | 359 kts | 17° |
| 2026-05-07 16:41 | 50.15184 | 8.33166 | 18408 ft | 363 kts | 17° |
| 2026-05-07 16:42 | 50.17589 | 8.34436 | 19056 ft | 367 kts | 17° |
| 2026-05-07 16:42 | 50.20019 | 8.35716 | 19721 ft | 370 kts | 17° |
| 2026-05-07 16:42 | 50.22469 | 8.37006 | 20386 ft | 374 kts | 17° |
| 2026-05-07 16:42 | 50.24942 | 8.38307 | 21056 ft | 377 kts | 17° |
| 2026-05-07 16:43 | 50.27425 | 8.39687 | 21715 ft | 381 kts | 22° |
| 2026-05-07 16:43 | 50.29769 | 8.41672 | 22353 ft | 386 kts | 33° |
| 2026-05-07 16:43 | 50.31876 | 8.44319 | 22987 ft | 391 kts | 40° |
| 2026-05-07 16:43 | 50.33916 | 8.47161 | 23634 ft | 394 kts | 40° |
| 2026-05-07 16:44 | 50.35971 | 8.50020 | 24184 ft | 397 kts | 40° |
| 2026-05-07 16:44 | 50.38048 | 8.52905 | 24722 ft | 400 kts | 40° |
| 2026-05-07 16:44 | 50.40141 | 8.55812 | 25246 ft | 403 kts | 40° |
| 2026-05-07 16:44 | 50.42247 | 8.58740 | 25766 ft | 406 kts | 40° |
| 2026-05-07 16:45 | 50.44368 | 8.61690 | 26276 ft | 409 kts | 40° |
| 2026-05-07 16:45 | 50.46520 | 8.64630 | 26785 ft | 412 kts | 39° |
| 2026-05-07 16:45 | 50.48710 | 8.67533 | 27282 ft | 414 kts | 38° |
| 2026-05-07 16:45 | 50.50935 | 8.70433 | 27776 ft | 417 kts | 38° |
| 2026-05-07 16:46 | 50.53179 | 8.73345 | 28260 ft | 420 kts | 38° |
| 2026-05-07 16:46 | 50.55416 | 8.76324 | 28749 ft | 423 kts | 42° |
| 2026-05-07 16:46 | 50.57395 | 8.79776 | 29232 ft | 427 kts | 52° |
| 2026-05-07 16:46 | 50.58995 | 8.83730 | 29705 ft | 431 kts | 61° |
| 2026-05-07 16:47 | 50.60428 | 8.87887 | 30158 ft | 433 kts | 60° |
| 2026-05-07 16:47 | 50.61874 | 8.92059 | 30537 ft | 436 kts | 60° |
| 2026-05-07 16:47 | 50.63336 | 8.96263 | 30909 ft | 439 kts | 60° |
| 2026-05-07 16:47 | 50.64808 | 9.00494 | 31268 ft | 442 kts | 60° |
| 2026-05-07 16:48 | 50.66288 | 9.04754 | 31621 ft | 444 kts | 60° |
| 2026-05-07 16:48 | 50.67768 | 9.09034 | 32066 ft | 444 kts | 60° |
| 2026-05-07 16:48 | 50.69238 | 9.13303 | 32555 ft | 443 kts | 60° |
| 2026-05-07 16:48 | 50.70700 | 9.17584 | 33062 ft | 443 kts | 62° |
| 2026-05-07 16:49 | 50.71888 | 9.22066 | 33517 ft | 444 kts | 71° |
| 2026-05-07 16:49 | 50.72677 | 9.26772 | 33997 ft | 444 kts | 76° |
| 2026-05-07 16:49 | 50.73386 | 9.31505 | 34402 ft | 443 kts | 76° |
| 2026-05-07 16:49 | 50.74098 | 9.36242 | 34750 ft | 444 kts | 76° |
| 2026-05-07 16:50 | 50.74815 | 9.40991 | 34998 ft | 446 kts | 76° |
| 2026-05-07 16:50 | 50.76232 | 9.50377 | 35057 ft | 432 kts | 76° |
| 2026-05-07 16:51 | 50.77602 | 9.59553 | 35060 ft | 428 kts | 76° |
| 2026-05-07 16:51 | 50.78956 | 9.68696 | 35060 ft | 427 kts | 76° |
| 2026-05-07 16:52 | 50.80305 | 9.77834 | 35056 ft | 427 kts | 76° |
| 2026-05-07 16:52 | 50.81634 | 9.86907 | 35059 ft | 427 kts | 76° |
| 2026-05-07 16:53 | 50.82970 | 9.96048 | 35053 ft | 427 kts | 77° |
| 2026-05-07 16:53 | 50.84247 | 10.05208 | 35051 ft | 426 kts | 82° |
| 2026-05-07 16:54 | 50.84256 | 10.14557 | 35051 ft | 426 kts | 95° |
| 2026-05-07 16:54 | 50.83712 | 10.23889 | 35044 ft | 426 kts | 95° |
| 2026-05-07 16:55 | 50.83174 | 10.33237 | 35047 ft | 427 kts | 95° |
| 2026-05-07 16:55 | 50.82629 | 10.42588 | 35043 ft | 427 kts | 96° |
| 2026-05-07 16:56 | 50.82073 | 10.51927 | 35043 ft | 427 kts | 96° |
| 2026-05-07 16:56 | 50.81224 | 10.65958 | 35046 ft | 427 kts | 96° |
| 2026-05-07 16:57 | 50.81006 | 10.75326 | 35061 ft | 427 kts | 84° |
| 2026-05-07 16:57 | 50.81828 | 10.84630 | 35066 ft | 427 kts | 82° |
| 2026-05-07 16:58 | 50.82642 | 10.93939 | 35077 ft | 427 kts | 82° |
| 2026-05-07 16:58 | 50.83442 | 11.03251 | 35074 ft | 427 kts | 82° |
| 2026-05-07 16:59 | 50.84236 | 11.12561 | 35077 ft | 427 kts | 82° |
| 2026-05-07 16:59 | 50.85025 | 11.21860 | 35074 ft | 427 kts | 83° |
| 2026-05-07 17:00 | 50.85753 | 11.31174 | 35058 ft | 426 kts | 88° |
| 2026-05-07 17:00 | 50.85800 | 11.40550 | 35056 ft | 426 kts | 90° |
| 2026-05-07 17:01 | 50.85834 | 11.49925 | 35052 ft | 426 kts | 90° |
| 2026-05-07 17:01 | 50.85855 | 11.59288 | 35047 ft | 426 kts | 90° |
| 2026-05-07 17:02 | 50.85863 | 11.68661 | 35046 ft | 426 kts | 90° |
| 2026-05-07 17:02 | 50.85868 | 11.78038 | 35048 ft | 426 kts | 90° |
| 2026-05-07 17:03 | 50.85865 | 11.87351 | 35040 ft | 426 kts | 91° |
| 2026-05-07 17:03 | 50.85855 | 11.96722 | 35040 ft | 426 kts | 91° |
| 2026-05-07 17:04 | 50.85842 | 12.06109 | 35046 ft | 426 kts | 91° |
| 2026-05-07 17:04 | 50.85820 | 12.15500 | 35047 ft | 427 kts | 91° |
| 2026-05-07 17:05 | 50.85786 | 12.24890 | 35043 ft | 427 kts | 91° |
| 2026-05-07 17:05 | 50.85742 | 12.34278 | 35036 ft | 427 kts | 91° |
| 2026-05-07 17:06 | 50.85695 | 12.43659 | 35035 ft | 427 kts | 91° |
| 2026-05-07 17:06 | 50.85643 | 12.53056 | 35036 ft | 427 kts | 91° |
| 2026-05-07 17:07 | 50.85584 | 12.62456 | 35037 ft | 427 kts | 91° |
| 2026-05-07 17:07 | 50.85516 | 12.71856 | 35035 ft | 427 kts | 92° |
| 2026-05-07 17:08 | 50.85435 | 12.81254 | 35031 ft | 427 kts | 92° |
| 2026-05-07 17:08 | 50.85351 | 12.90658 | 35027 ft | 427 kts | 92° |
| 2026-05-07 17:09 | 50.85260 | 13.00066 | 35029 ft | 428 kts | 92° |
| 2026-05-07 17:09 | 50.85155 | 13.09463 | 35027 ft | 427 kts | 92° |
| 2026-05-07 17:10 | 50.85050 | 13.18876 | 35030 ft | 428 kts | 92° |
| 2026-05-07 17:10 | 50.84936 | 13.28286 | 35016 ft | 428 kts | 93° |
| 2026-05-07 17:11 | 50.84814 | 13.37694 | 35021 ft | 428 kts | 93° |
| 2026-05-07 17:11 | 50.84686 | 13.47101 | 35020 ft | 428 kts | 93° |
| 2026-05-07 17:12 | 50.84549 | 13.56511 | 35024 ft | 428 kts | 93° |
| 2026-05-07 17:12 | 50.84399 | 13.65921 | 35021 ft | 428 kts | 93° |
| 2026-05-07 17:13 | 50.84243 | 13.75320 | 35022 ft | 428 kts | 94° |
| 2026-05-07 17:13 | 50.84076 | 13.84731 | 35019 ft | 428 kts | 94° |
| 2026-05-07 17:14 | 50.83875 | 13.94140 | 35016 ft | 427 kts | 98° |
| 2026-05-07 17:14 | 50.82390 | 14.03059 | 35012 ft | 421 kts | 117° |
| 2026-05-07 17:15 | 50.79381 | 14.11010 | 35010 ft | 418 kts | 125° |
| 2026-05-07 17:15 | 50.76256 | 14.18763 | 34996 ft | 419 kts | 125° |
| 2026-05-07 17:16 | 50.73652 | 14.25222 | 34994 ft | 420 kts | 125° |
| 2026-05-07 17:16 | 50.69986 | 14.34252 | 34984 ft | 421 kts | 125° |
| 2026-05-07 17:17 | 50.67334 | 14.40754 | 34983 ft | 421 kts | 125° |
| 2026-05-07 17:17 | 50.63640 | 14.49776 | 34975 ft | 422 kts | 125° |
| 2026-05-07 17:18 | 50.60972 | 14.56284 | 34977 ft | 422 kts | 125° |
| 2026-05-07 17:18 | 50.57787 | 14.64050 | 34972 ft | 422 kts | 126° |
| 2026-05-07 17:19 | 50.54594 | 14.71781 | 34972 ft | 422 kts | 126° |
| 2026-05-07 17:19 | 50.51419 | 14.79456 | 34974 ft | 421 kts | 126° |
| 2026-05-07 17:20 | 50.48222 | 14.87166 | 34967 ft | 421 kts | 126° |
| 2026-05-07 17:20 | 50.45001 | 14.94915 | 34965 ft | 421 kts | 126° |
| 2026-05-07 17:21 | 50.41807 | 15.02586 | 34962 ft | 420 kts | 127° |
| 2026-05-07 17:21 | 50.38633 | 15.10169 | 34973 ft | 418 kts | 127° |
| 2026-05-07 17:22 | 50.35442 | 15.17771 | 34964 ft | 417 kts | 127° |
| 2026-05-07 17:22 | 50.32249 | 15.25346 | 34960 ft | 416 kts | 127° |
| 2026-05-07 17:23 | 50.29063 | 15.32906 | 34947 ft | 417 kts | 127° |
| 2026-05-07 17:23 | 50.25873 | 15.40463 | 34937 ft | 416 kts | 127° |
| 2026-05-07 17:24 | 50.22682 | 15.47984 | 34953 ft | 415 kts | 128° |
| 2026-05-07 17:24 | 50.19491 | 15.55468 | 34958 ft | 414 kts | 128° |
| 2026-05-07 17:25 | 50.16295 | 15.62941 | 34960 ft | 414 kts | 128° |
| 2026-05-07 17:25 | 50.13097 | 15.70396 | 34962 ft | 413 kts | 128° |
| 2026-05-07 17:26 | 50.09899 | 15.77838 | 34949 ft | 413 kts | 128° |
| 2026-05-07 17:26 | 50.06706 | 15.85255 | 34956 ft | 412 kts | 128° |
| 2026-05-07 17:27 | 50.03566 | 15.92727 | 34956 ft | 415 kts | 122° |
| 2026-05-07 17:27 | 50.01774 | 16.01337 | 34940 ft | 426 kts | 101° |
| 2026-05-07 17:28 | 50.01618 | 16.10618 | 34944 ft | 430 kts | 94° |
| 2026-05-07 17:28 | 50.01569 | 16.19917 | 34924 ft | 430 kts | 95° |
| 2026-05-07 17:29 | 50.01506 | 16.29208 | 34941 ft | 430 kts | 95° |
| 2026-05-07 17:29 | 50.01435 | 16.38493 | 34948 ft | 429 kts | 96° |
| 2026-05-07 17:30 | 50.01350 | 16.47769 | 34955 ft | 429 kts | 95° |
| 2026-05-07 17:30 | 50.01156 | 16.57022 | 34951 ft | 427 kts | 98° |
| 2026-05-07 17:31 | 50.00696 | 16.66215 | 34935 ft | 426 kts | 101° |
| 2026-05-07 17:31 | 50.00176 | 16.75375 | 34935 ft | 426 kts | 100° |
| 2026-05-07 17:32 | 49.99700 | 16.84558 | 34938 ft | 426 kts | 100° |
| 2026-05-07 17:32 | 49.99254 | 16.93742 | 34942 ft | 426 kts | 100° |
| 2026-05-07 17:33 | 49.98801 | 17.02865 | 34948 ft | 426 kts | 100° |
| 2026-05-07 17:33 | 49.98322 | 17.12099 | 34929 ft | 427 kts | 101° |
| 2026-05-07 17:34 | 49.97833 | 17.21310 | 34937 ft | 428 kts | 101° |
| 2026-05-07 17:34 | 49.97347 | 17.30471 | 34942 ft | 428 kts | 101° |
| 2026-05-07 17:35 | 49.96856 | 17.39683 | 34946 ft | 428 kts | 101° |
| 2026-05-07 17:35 | 49.96354 | 17.48896 | 34946 ft | 428 kts | 101° |
| 2026-05-07 17:36 | 49.95836 | 17.58102 | 34930 ft | 427 kts | 101° |
| 2026-05-07 17:36 | 49.95317 | 17.67304 | 34940 ft | 428 kts | 101° |
| 2026-05-07 17:37 | 49.94797 | 17.76516 | 34950 ft | 428 kts | 101° |
| 2026-05-07 17:37 | 49.94532 | 17.81129 | 34761 ft | 428 kts | 101° |
| 2026-05-07 17:37 | 49.94267 | 17.85717 | 34277 ft | 426 kts | 102° |
| 2026-05-07 17:38 | 49.94000 | 17.90297 | 33713 ft | 425 kts | 102° |
| 2026-05-07 17:38 | 49.93728 | 17.94852 | 33194 ft | 422 kts | 102° |
| 2026-05-07 17:38 | 49.93458 | 17.99366 | 32692 ft | 418 kts | 102° |
| 2026-05-07 17:38 | 49.93194 | 18.03842 | 32211 ft | 415 kts | 102° |
| 2026-05-07 17:39 | 49.93146 | 18.08324 | 31734 ft | 417 kts | 96° |
| 2026-05-07 17:39 | 49.93209 | 18.12800 | 31265 ft | 413 kts | 96° |
| 2026-05-07 17:39 | 49.93270 | 18.17241 | 30797 ft | 410 kts | 96° |
| 2026-05-07 17:39 | 49.93326 | 18.21648 | 30342 ft | 406 kts | 96° |
| 2026-05-07 17:40 | 49.93376 | 18.26015 | 29880 ft | 403 kts | 97° |
| 2026-05-07 17:40 | 49.93435 | 18.30369 | 29276 ft | 402 kts | 96° |
| 2026-05-07 17:40 | 49.93511 | 18.34675 | 28867 ft | 398 kts | 96° |
| 2026-05-07 17:40 | 49.93592 | 18.38942 | 28434 ft | 394 kts | 96° |
| 2026-05-07 17:41 | 49.93667 | 18.43172 | 28007 ft | 391 kts | 96° |
| 2026-05-07 17:41 | 49.93734 | 18.47369 | 27576 ft | 387 kts | 96° |
| 2026-05-07 17:41 | 49.93798 | 18.51542 | 27137 ft | 384 kts | 96° |
| 2026-05-07 17:41 | 49.93860 | 18.55670 | 26709 ft | 381 kts | 96° |
| 2026-05-07 17:42 | 49.93919 | 18.59760 | 26265 ft | 378 kts | 96° |
| 2026-05-07 17:42 | 49.93974 | 18.63827 | 25811 ft | 376 kts | 96° |
| 2026-05-07 17:42 | 49.94029 | 18.67880 | 25362 ft | 374 kts | 96° |
| 2026-05-07 17:42 | 49.94082 | 18.71911 | 24898 ft | 373 kts | 96° |
| 2026-05-07 17:43 | 49.94134 | 18.75926 | 24428 ft | 371 kts | 96° |
| 2026-05-07 17:43 | 49.94183 | 18.79928 | 23950 ft | 370 kts | 96° |
| 2026-05-07 17:43 | 49.94230 | 18.83925 | 23462 ft | 370 kts | 96° |
| 2026-05-07 17:43 | 49.94276 | 18.87910 | 22942 ft | 368 kts | 96° |
| 2026-05-07 17:44 | 49.94323 | 18.91867 | 22473 ft | 365 kts | 95° |
| 2026-05-07 17:44 | 49.94367 | 18.95787 | 22016 ft | 363 kts | 95° |
| 2026-05-07 17:44 | 49.94409 | 18.99688 | 21553 ft | 360 kts | 95° |
| 2026-05-07 17:44 | 49.94449 | 19.03553 | 21119 ft | 357 kts | 94° |
| 2026-05-07 17:45 | 49.94490 | 19.07391 | 20683 ft | 354 kts | 94° |
| 2026-05-07 17:45 | 49.94530 | 19.11157 | 20252 ft | 353 kts | 94° |
| 2026-05-07 17:45 | 49.94568 | 19.14953 | 19818 ft | 351 kts | 94° |
| 2026-05-07 17:45 | 49.94602 | 19.18734 | 19383 ft | 350 kts | 94° |
| 2026-05-07 17:46 | 49.94632 | 19.22490 | 18957 ft | 349 kts | 94° |
| 2026-05-07 17:46 | 49.94661 | 19.26261 | 18526 ft | 348 kts | 93° |
| 2026-05-07 17:46 | 49.94691 | 19.30016 | 18085 ft | 348 kts | 93° |
| 2026-05-07 17:46 | 49.94722 | 19.33760 | 17639 ft | 346 kts | 94° |
| 2026-05-07 17:47 | 49.94753 | 19.37488 | 17231 ft | 344 kts | 94° |
| 2026-05-07 17:47 | 49.94781 | 19.41189 | 16817 ft | 342 kts | 94° |
| 2026-05-07 17:47 | 49.94806 | 19.44863 | 16410 ft | 340 kts | 94° |
| 2026-05-07 17:47 | 49.94869 | 19.48522 | 16025 ft | 338 kts | 88° |
| 2026-05-07 17:48 | 49.95285 | 19.52109 | 15643 ft | 338 kts | 81° |
| 2026-05-07 17:48 | 49.95773 | 19.55670 | 15266 ft | 336 kts | 81° |
| 2026-05-07 17:48 | 49.96252 | 19.59211 | 14895 ft | 334 kts | 81° |
| 2026-05-07 17:48 | 49.96727 | 19.62734 | 14525 ft | 332 kts | 81° |
| 2026-05-07 17:49 | 49.97199 | 19.66239 | 14158 ft | 331 kts | 81° |
| 2026-05-07 17:49 | 49.97669 | 19.69730 | 13791 ft | 329 kts | 81° |
| 2026-05-07 17:49 | 49.98138 | 19.73208 | 13389 ft | 328 kts | 81° |
| 2026-05-07 17:49 | 49.98603 | 19.76661 | 13012 ft | 325 kts | 80° |
| 2026-05-07 17:50 | 49.99065 | 19.80080 | 12519 ft | 324 kts | 80° |
| 2026-05-07 17:50 | 49.99529 | 19.83502 | 11839 ft | 322 kts | 80° |
| 2026-05-07 17:50 | 49.99993 | 19.86910 | 11040 ft | 323 kts | 79° |
| 2026-05-07 17:50 | 50.00459 | 19.90346 | 10206 ft | 326 kts | 79° |
| 2026-05-07 17:51 | 50.00925 | 19.93791 | 9334 ft | 326 kts | 79° |
| 2026-05-07 17:51 | 50.01391 | 19.97245 | 8472 ft | 326 kts | 79° |
| 2026-05-07 17:51 | 50.01847 | 20.00645 | 7850 ft | 317 kts | 78° |
| 2026-05-07 17:51 | 50.02293 | 20.03957 | 7252 ft | 309 kts | 78° |
| 2026-05-07 17:52 | 50.02729 | 20.07187 | 6663 ft | 302 kts | 78° |
| 2026-05-07 17:52 | 50.03159 | 20.10344 | 6067 ft | 295 kts | 78° |
| 2026-05-07 17:52 | 50.03578 | 20.13436 | 5457 ft | 289 kts | 78° |
| 2026-05-07 17:52 | 50.03986 | 20.16447 | 5078 ft | 276 kts | 78° |
| 2026-05-07 17:53 | 50.04374 | 20.19278 | 4997 ft | 259 kts | 76° |
| 2026-05-07 17:53 | 50.05127 | 20.21710 | 5011 ft | 248 kts | 47° |
| 2026-05-07 17:53 | 50.06520 | 20.23401 | 5019 ft | 267 kts | 27° |
| 2026-05-07 17:53 | 50.08264 | 20.24402 | 5012 ft | 269 kts | 4° |
| 2026-05-07 17:54 | 50.10055 | 20.24181 | 5004 ft | 248 kts | 340° |
| 2026-05-07 17:54 | 50.11580 | 20.23203 | 5009 ft | 228 kts | 333° |
| 2026-05-07 17:54 | 50.12793 | 20.21829 | 5002 ft | 207 kts | 304° |
| 2026-05-07 17:54 | 50.13313 | 20.19820 | 5010 ft | 200 kts | 274° |
| 2026-05-07 17:55 | 50.13146 | 20.17687 | 5010 ft | 200 kts | 257° |
| 2026-05-07 17:55 | 50.12854 | 20.15588 | 5010 ft | 194 kts | 257° |
| 2026-05-07 17:55 | 50.12579 | 20.13595 | 5005 ft | 184 kts | 258° |
| 2026-05-07 17:55 | 50.12316 | 20.11663 | 5008 ft | 182 kts | 258° |
| 2026-05-07 17:56 | 50.12057 | 20.09737 | 5010 ft | 181 kts | 258° |
| 2026-05-07 17:56 | 50.11797 | 20.07816 | 5010 ft | 181 kts | 258° |
| 2026-05-07 17:56 | 50.11533 | 20.05896 | 4967 ft | 183 kts | 258° |
| 2026-05-07 17:56 | 50.11272 | 20.03986 | 4830 ft | 179 kts | 258° |
| 2026-05-07 17:57 | 50.11018 | 20.02067 | 4553 ft | 180 kts | 258° |
| 2026-05-07 17:57 | 50.10841 | 20.00808 | 4320 ft | 181 kts | 258° |
| 2026-05-07 17:57 | 50.10508 | 19.98243 | 3892 ft | 180 kts | 259° |
| 2026-05-07 17:57 | 50.10254 | 19.96324 | 3540 ft | 181 kts | 258° |
| 2026-05-07 17:58 | 50.09990 | 19.94416 | 3242 ft | 180 kts | 258° |
| 2026-05-07 17:58 | 50.09715 | 19.92548 | 2928 ft | 176 kts | 257° |
| 2026-05-07 17:58 | 50.09474 | 19.90808 | 2709 ft | 152 kts | 259° |
| 2026-05-07 17:58 | 50.09270 | 19.89256 | 2379 ft | 142 kts | 258° |
| 2026-05-07 17:59 | 50.09058 | 19.87795 | 2065 ft | 136 kts | 257° |
| 2026-05-07 17:59 | 50.08864 | 19.86389 | 1841 ft | 131 kts | 256° |
| 2026-05-07 17:59 | 50.08679 | 19.85017 | 1596 ft | 130 kts | 256° |
| 2026-05-07 17:59 | 50.08486 | 19.83644 | 1405 ft | 130 kts | 255° |
| 2026-05-07 18:00 | 50.08289 | 19.82266 | 1170 ft | 129 kts | 255° |
| 2026-05-07 18:00 | 50.08106 | 19.80922 | 946 ft | 128 kts | 256° |
| 2026-05-07 18:00 | 50.07925 | 19.79565 | 811 ft | 122 kts | 255° |
| 2026-05-07 18:00 | 50.07780 | 19.78523 | 801 ft | 62 kts | 256° |
| 2026-05-07 18:01 | 50.07716 | 19.78131 | 799 ft | 15 kts | 236° |
| 2026-05-07 18:01 | 50.07620 | 19.78090 | 800 ft | 15 kts | 184° |
| 2026-05-07 18:01 | 50.07546 | 19.78083 | 800 ft | 0 kts | 182° |
| 2026-05-07 18:01 | 50.07545 | 19.78083 | 800 ft | 1 kts | 182° |
| 2026-05-07 18:02 | 50.07532 | 19.78082 | 800 ft | 2 kts | 182° |
| 2026-05-07 18:02 | 50.07492 | 19.78091 | 800 ft | 10 kts | 153° |
| 2026-05-07 18:02 | 50.07479 | 19.78198 | 800 ft | 12 kts | 77° |
| 2026-05-07 18:03 | 50.07502 | 19.78349 | 800 ft | 17 kts | 78° |
| 2026-05-07 18:03 | 50.07526 | 19.78535 | 800 ft | 18 kts | 79° |
| 2026-05-07 18:03 | 50.07551 | 19.78728 | 800 ft | 18 kts | 74° |
| 2026-05-07 18:03 | 50.07582 | 19.78929 | 800 ft | 20 kts | 78° |
| 2026-05-07 18:04 | 50.07601 | 19.79071 | 800 ft | 20 kts | 76° |
| 2026-05-07 18:04 | 50.07632 | 19.79292 | 800 ft | 21 kts | 77° |
| 2026-05-07 18:04 | 50.07662 | 19.79508 | 800 ft | 19 kts | 78° |
| 2026-05-07 18:04 | 50.07692 | 19.79719 | 800 ft | 21 kts | 77° |
| 2026-05-07 18:05 | 50.07690 | 19.79871 | 800 ft | 10 kts | 143° |
| 2026-05-07 18:05 | 50.07611 | 19.79900 | 800 ft | 14 kts | 167° |
| 2026-05-07 18:05 | 50.07502 | 19.79936 | 800 ft | 17 kts | 168° |
| 2026-05-07 18:05 | 50.07407 | 19.79972 | 800 ft | 12 kts | 163° |
| 2026-05-07 18:06 | 50.07331 | 19.79999 | 800 ft | 10 kts | 167° |
| 2026-05-07 18:06 | 50.07307 | 19.80007 | 800 ft | 0 kts | 168° |